createdAt,value
2022-10-17T00:01:00.468Z,11.18
2022-10-17T00:11:14.887Z,11.01
2022-10-17T00:21:18.397Z,10.86
2022-10-17T00:31:22.285Z,10.68
2022-10-17T00:41:28.387Z,10.45
2022-10-17T00:51:59.098Z,10.34
2022-10-17T01:02:05.086Z,10.16
2022-10-17T01:12:22.197Z,9.97
2022-10-17T01:22:33.967Z,9.76
2022-10-17T01:32:41.056Z,9.56
2022-10-17T01:42:51.784Z,9.40
2022-10-17T01:52:59.946Z,9.31
2022-10-17T02:03:06.497Z,9.20
2022-10-17T02:13:14.626Z,9.16
2022-10-17T02:23:43.681Z,9.06
2022-10-17T02:34:01.249Z,8.88
2022-10-17T02:44:05.368Z,8.88
2022-10-17T02:54:15.365Z,8.82
2022-10-17T03:04:18.720Z,8.70
2022-10-17T03:14:20.901Z,8.56
2022-10-17T03:24:23.016Z,8.46
2022-10-17T03:34:25.155Z,8.34
2022-10-17T03:44:27.226Z,8.22
2022-10-17T03:54:29.407Z,8.22
2022-10-17T04:04:31.486Z,8.13
2022-10-17T04:14:33.777Z,8.05
2022-10-17T04:24:35.890Z,7.97
2022-10-17T04:34:39.251Z,7.89
2022-10-17T04:44:41.391Z,7.91
2022-10-17T04:54:43.729Z,7.79
2022-10-17T05:04:45.878Z,7.69
2022-10-17T05:14:47.932Z,7.63
2022-10-17T05:24:50.017Z,7.38
2022-10-17T05:34:52.103Z,7.20
2022-10-17T05:44:54.225Z,7.15
2022-10-17T05:54:56.360Z,7.15
2022-10-17T06:04:58.453Z,7.28
2022-10-17T06:15:00.577Z,7.44
2022-10-17T06:25:02.769Z,7.76
2022-10-17T06:35:05.307Z,8.29
2022-10-17T06:45:08.485Z,8.70
2022-10-17T06:55:10.621Z,8.99
2022-10-17T07:05:12.931Z,9.24
2022-10-17T07:15:15.082Z,9.60
2022-10-17T07:25:17.300Z,10.03
2022-10-17T07:35:19.493Z,10.58
2022-10-17T07:45:21.575Z,11.13
2022-10-17T07:55:23.670Z,11.66
2022-10-17T08:05:25.770Z,12.14
2022-10-17T08:15:31.053Z,12.60
2022-10-17T08:25:34.240Z,12.95
2022-10-17T08:35:36.357Z,13.49
2022-10-17T08:46:03.283Z,14.11
2022-10-17T08:56:25.138Z,15.93
2022-10-17T09:07:03.222Z,17.98
2022-10-17T09:28:33.248Z,16.64
2022-10-17T09:38:41.591Z,16.91
2022-10-17T09:59:04.621Z,17.89
2022-10-17T10:09:18.785Z,18.65
2022-10-17T10:19:32.815Z,19.42
2022-10-17T10:29:38.453Z,20.30
2022-10-17T10:39:53.115Z,20.96
2022-10-17T10:50:30.267Z,21.64
2022-10-17T11:00:35.030Z,22.23
2022-10-17T11:10:58.928Z,22.88
2022-10-17T11:21:12.434Z,23.34
2022-10-17T11:31:17.440Z,23.53
2022-10-17T11:41:29.891Z,23.81
2022-10-17T11:52:00.647Z,24.09
2022-10-17T12:02:12.650Z,24.38
2022-10-17T12:12:48.386Z,24.17
2022-10-17T12:23:20.191Z,24.06
2022-10-17T12:33:26.893Z,24.33
2022-10-17T12:43:29.026Z,24.49
2022-10-17T12:53:44.591Z,24.33
2022-10-17T13:03:50.581Z,24.18
2022-10-17T13:13:54.761Z,23.95
2022-10-17T13:23:56.924Z,23.25
2022-10-17T13:34:01.532Z,22.91
2022-10-17T13:44:12.469Z,22.60
2022-10-17T13:54:33.754Z,22.20
2022-10-17T14:04:57.790Z,21.34
2022-10-17T14:15:10.078Z,21.02
2022-10-17T14:25:28.050Z,21.40
2022-10-17T14:35:41.683Z,21.01
2022-10-17T14:45:46.269Z,19.87
2022-10-17T14:55:57.837Z,18.67
2022-10-17T15:06:18.898Z,17.73
2022-10-17T15:16:21.056Z,17.12
2022-10-17T15:26:26.122Z,16.56
2022-10-17T15:36:30.746Z,15.94
2022-10-17T15:46:35.215Z,16.50
2022-10-17T15:56:40.422Z,17.51
2022-10-17T16:06:43.574Z,17.84
2022-10-17T16:16:45.725Z,18.26
2022-10-17T16:26:47.893Z,18.21
2022-10-17T16:36:49.952Z,18.42
2022-10-17T16:46:52.032Z,18.08
2022-10-17T16:56:54.147Z,17.27
2022-10-17T17:06:56.407Z,17.46
2022-10-17T17:16:58.512Z,17.36
2022-10-17T17:27:00.597Z,16.42
2022-10-17T17:37:02.751Z,15.64
2022-10-17T17:47:04.927Z,15.01
2022-10-17T17:57:07.058Z,15.86
2022-10-17T18:07:09.206Z,16.68
2022-10-17T18:17:11.422Z,16.96
2022-10-17T18:27:16.039Z,17.35
2022-10-17T18:37:18.114Z,17.63
2022-10-17T18:47:20.260Z,17.57
2022-10-17T18:57:25.254Z,16.90
2022-10-17T19:07:28.860Z,16.62
2022-10-17T19:17:31.485Z,16.54
2022-10-17T19:27:34.042Z,16.78
2022-10-17T19:37:36.141Z,16.91
2022-10-17T19:47:39.645Z,16.87
2022-10-17T19:57:41.763Z,16.87
2022-10-17T20:07:43.859Z,16.68
2022-10-17T20:17:46.012Z,16.55
2022-10-17T20:27:48.075Z,16.53
2022-10-17T20:40:33.637Z,16.63
2022-10-17T20:50:35.644Z,16.71
2022-10-17T21:00:42.420Z,16.64
2022-10-17T21:10:44.495Z,16.31
2022-10-17T21:20:46.654Z,16.23
2022-10-17T21:30:48.703Z,16.19
2022-10-17T21:40:52.588Z,15.57
2022-10-17T21:51:00.751Z,15.24
2022-10-17T22:01:13.111Z,15.07
2022-10-17T22:11:25.155Z,14.80
2022-10-17T22:21:28.000Z,14.32
2022-10-17T22:31:30.129Z,13.93
2022-10-17T22:41:32.288Z,13.70
2022-10-17T22:51:34.372Z,13.47
2022-10-17T23:01:36.483Z,13.22
2022-10-17T23:11:38.593Z,13.78
2022-10-17T23:21:40.689Z,14.45
2022-10-17T23:31:42.816Z,14.80
2022-10-17T23:41:45.581Z,14.87
2022-10-17T23:51:47.702Z,14.49
